Fordyce, Nebraska
Current Conditions -  °F | °C
As of 11:15 AM on Monday 22 Dec 2014 (Local Time) from KYKN Reporting Station
Overcast Overcast  
Wind Chill: 31°   Ceiling: 700
Heat Index: 39°   Visibility: 10mi
Dew Point: 36°   Wind: 15mph
Humidity: 87%   Direction: 280°W
Pressure: 29.46"   Gusts: NA
Location:  42.7°N, 97.36°W
Report Text: KYKN 221715Z AUTO 28013KT 10SM BKN007 OVC014 04/02 A2946 RMK AO1
Loading
Personal Weather Stations






























Interactive Weather Map New forecast layout! Learn more

10-Day Weather Forecast

Advertisements
Track Severe Weather on mobile